Time;durP1;ratioP1;P1;durP2;ratioP2;P2;SDS_P1;SDS_P2;PMS_P1;PMS_P2;Temp;Humidity;BMP_temperature;BMP_pressure;BME280_temperature;BME280_humidity;BME280_pressure;Samples;Min_cycle;Max_cycle;Signal;HPM_P1;HPM_P2
2023/02/08 00:02:41;;;;;;;17.73;10.00;;;;;;;3.52;61.42;104090.84;6040910;29;20232;-70
2023/02/08 00:06:02;;;;;;;10.07;9.00;;;;;;;3.35;61.03;104087.41;6045126;29;20230;-69
2023/02/08 00:09:22;;;;;;;10.37;7.87;;;;;;;2.87;62.02;104078.84;6059122;29;20237;-69
2023/02/08 00:12:46;;;;;;;13.33;9.03;;;;;;;2.04;65.29;104080.94;6049358;29;20656;-69
2023/02/08 00:16:07;;;;;;;8.27;6.47;;;;;;;2.98;63.30;104082.31;6041245;29;20245;-69
2023/02/08 00:19:30;;;;;;;11.40;8.50;;;;;;;3.22;62.34;104075.94;6058810;29;20241;-69
2023/02/08 00:22:51;;;;;;;10.40;8.47;;;;;;;2.96;62.44;104073.44;6056431;29;20228;-69
2023/02/08 00:26:12;;;;;;;11.70;9.30;;;;;;;3.27;61.75;104079.47;6067083;29;20324;-69
2023/02/08 00:29:35;;;;;;;10.17;8.53;;;;;;;3.24;61.42;104064.38;6045411;29;20652;-69
2023/02/08 00:32:56;;;;;;;10.40;7.10;;;;;;;3.03;61.93;104063.63;6040758;29;20230;-68
2023/02/08 00:36:17;;;;;;;10.77;6.90;;;;;;;3.28;61.47;104059.00;6044511;29;20237;-69
2023/02/08 00:39:38;;;;;;;12.93;8.47;;;;;;;3.38;60.99;104050.06;6063684;29;20236;-69
2023/02/08 00:42:59;;;;;;;10.80;8.07;;;;;;;3.20;61.76;104051.97;6044461;29;20695;-69
2023/02/08 00:46:22;;;;;;;9.47;8.30;;;;;;;2.99;61.91;104046.78;6061268;29;20233;-70
2023/02/08 00:49:43;;;;;;;11.00;7.40;;;;;;;2.85;62.59;104048.66;6028856;29;20236;-70
2023/02/08 00:53:04;;;;;;;10.60;8.60;;;;;;;2.37;64.00;104048.91;6042096;29;20236;-70
2023/02/08 00:56:25;;;;;;;11.13;7.83;;;;;;;2.03;65.57;104055.19;6047798;29;20226;-69
2023/02/08 00:59:46;;;;;;;10.93;8.50;;;;;;;2.44;64.27;104048.00;6058980;29;20236;-70
2023/02/08 01:03:08;;;;;;;10.03;8.40;;;;;;;2.50;64.03;104052.38;6060089;29;20782;-70
2023/02/08 01:06:28;;;;;;;8.67;7.30;;;;;;;2.80;63.30;104042.47;6037387;29;20242;-69
2023/02/08 01:09:49;;;;;;;19.07;9.67;;;;;;;2.68;63.14;104054.97;6062532;29;20237;-69
2023/02/08 01:13:10;;;;;;;12.90;9.37;;;;;;;2.91;62.43;104043.28;6069140;29;20240;-69
2023/02/08 01:16:33;;;;;;;12.30;8.53;;;;;;;2.96;62.05;104046.78;6068328;29;20257;-70
2023/02/08 01:19:55;;;;;;;12.63;9.37;;;;;;;3.04;62.13;104050.31;6045637;29;20238;-70
2023/02/08 01:23:16;;;;;;;10.57;6.93;;;;;;;3.02;61.84;104044.13;6053282;29;20229;-69
2023/02/08 01:26:38;;;;;;;9.63;7.77;;;;;;;2.84;62.52;104049.53;6051477;29;20229;-69
2023/02/08 01:29:59;;;;;;;9.83;7.03;;;;;;;2.88;62.52;104045.09;6045423;29;20237;-69
2023/02/08 01:33:22;;;;;;;13.93;8.63;;;;;;;3.03;62.63;104043.19;6048322;29;20233;-69
2023/02/08 01:36:44;;;;;;;11.17;7.33;;;;;;;2.85;62.66;104045.09;6054749;29;20237;-70
2023/02/08 01:40:06;;;;;;;14.37;8.17;;;;;;;2.68;63.44;104041.66;6039963;29;20234;-69
2023/02/08 01:43:28;;;;;;;11.00;8.63;;;;;;;2.77;63.05;104036.28;6047306;29;20308;-68
2023/02/08 01:46:50;;;;;;;7.97;6.43;;;;;;;3.00;62.56;104026.38;6035102;29;20324;-69
2023/02/08 01:50:12;;;;;;;10.73;7.53;;;;;;;2.84;62.33;104024.66;6058820;29;20311;-72
2023/02/08 01:53:39;;;;;;;9.03;7.50;;;;;;;2.90;62.41;104025.53;6074373;29;20228;-69
2023/02/08 01:57:00;;;;;;;12.23;9.67;;;;;;;2.58;62.90;104027.50;6047785;29;20290;-68
2023/02/08 02:00:22;;;;;;;10.10;8.57;;;;;;;2.57;63.12;104028.38;6068034;29;20245;-69
2023/02/08 02:03:44;;;;;;;12.47;7.60;;;;;;;2.72;62.77;104033.63;6054118;29;20270;-69
2023/02/08 02:07:08;;;;;;;9.53;7.77;;;;;;;2.25;63.78;104040.97;6053434;29;20237;-69
2023/02/08 02:10:32;;;;;;;13.07;9.40;;;;;;;2.27;64.11;104031.19;6056465;29;20245;-69
2023/02/08 02:13:53;;;;;;;8.97;8.07;;;;;;;2.19;64.54;104033.88;6056070;29;20248;-69
2023/02/08 02:17:18;;;;;;;10.77;8.17;;;;;;;2.03;64.57;104039.25;6050453;29;20320;-69
2023/02/08 02:21:11;;;;;;;10.50;9.30;;;;;;;2.17;64.89;104034.78;6058437;29;20233;-68
2023/02/08 02:25:03;;;;;;;14.63;8.23;;;;;;;1.61;66.87;104033.13;6065360;29;20261;-70
2023/02/08 02:28:58;;;;;;;10.53;8.90;;;;;;;2.12;65.57;104031.25;6066185;29;20607;-69
2023/02/08 02:32:34;;;;;;;14.53;10.07;;;;;;;2.49;64.27;104035.53;6048377;29;20357;-69
2023/02/08 02:36:02;;;;;;;10.63;7.80;;;;;;;2.61;63.47;104030.13;6073524;29;20225;-69
2023/02/08 02:39:34;;;;;;;14.60;8.57;;;;;;;1.92;65.09;104035.75;6051564;29;20228;-69
2023/02/08 02:46:50;;;;;;;9.67;8.67;;;;;;;2.42;63.84;104039.09;6035981;29;20541;-70
2023/02/08 02:50:24;;;;;;;11.10;7.87;;;;;;;2.59;63.49;104042.56;6062429;29;20495;-70
2023/02/08 02:53:52;;;;;;;13.47;9.00;;;;;;;2.48;63.16;104051.50;6061372;29;20232;-69
2023/02/08 02:57:18;;;;;;;13.63;8.87;;;;;;;2.76;62.51;104050.47;6049163;29;20762;-70
2023/02/08 03:00:39;;;;;;;12.97;10.60;;;;;;;2.46;63.17;104058.63;6075395;29;20229;-69
2023/02/08 03:04:01;;;;;;;14.27;8.13;;;;;;;2.17;63.77;104051.63;6070495;29;20686;-69
2023/02/08 03:07:41;;;;;;;12.90;8.17;;;;;;;1.88;64.31;104052.59;6056390;29;20571;-68
2023/02/08 03:11:14;;;;;;;11.17;7.80;;;;;;;1.81;64.62;104040.19;6072305;29;21925;-69
2023/02/08 03:14:45;;;;;;;16.17;8.60;;;;;;;1.51;65.03;104043.75;6072289;29;20233;-69
2023/02/08 03:18:21;;;;;;;10.70;8.30;;;;;;;1.76;65.71;104047.28;6048997;29;20233;-69
2023/02/08 03:21:50;;;;;;;13.00;8.00;;;;;;;1.83;65.52;104047.28;6041678;29;20261;-69
2023/02/08 03:25:20;;;;;;;15.00;9.87;;;;;;;2.11;64.47;104053.41;6063173;29;20237;-69
2023/02/08 03:28:48;;;;;;;11.03;8.83;;;;;;;2.21;63.64;104058.69;6070015;29;20248;-70
2023/02/08 03:32:14;;;;;;;11.10;7.93;;;;;;;2.42;63.00;104055.06;6045082;29;20229;-69
2023/02/08 03:35:40;;;;;;;11.80;8.67;;;;;;;2.32;63.07;104061.31;6074728;29;20267;-69
2023/02/08 03:39:06;;;;;;;13.30;9.43;;;;;;;2.34;63.00;104059.53;6067713;29;20232;-68
2023/02/08 03:42:32;;;;;;;11.57;8.47;;;;;;;2.50;62.29;104053.28;6045547;29;20231;-69
2023/02/08 03:45:59;;;;;;;12.73;8.73;;;;;;;2.43;63.28;104056.84;6060736;29;20233;-69
2023/02/08 03:49:23;;;;;;;8.73;7.27;;;;;;;2.50;62.52;104050.63;6061022;29;20817;-68
2023/02/08 03:52:47;;;;;;;11.80;9.90;;;;;;;2.60;62.15;104055.00;6062032;29;20232;-68
2023/02/08 03:56:14;;;;;;;15.07;7.87;;;;;;;2.55;62.34;104056.78;6074191;29;22936;-69
2023/02/08 03:59:40;;;;;;;13.57;9.97;;;;;;;1.83;63.56;104052.59;6068646;29;20229;-70
2023/02/08 04:03:08;;;;;;;10.67;8.80;;;;;;;2.17;64.37;104046.28;6048470;29;20312;-69
2023/02/08 04:06:29;;;;;;;13.23;9.00;;;;;;;2.33;63.16;104056.00;6064452;29;20237;-69
2023/02/08 04:09:50;;;;;;;13.87;10.80;;;;;;;2.41;63.06;104050.66;6070504;29;20631;-70
2023/02/08 04:13:10;;;;;;;16.87;9.93;;;;;;;2.05;63.38;104046.34;6062157;29;20655;-70
2023/02/08 04:16:32;;;;;;;11.43;8.13;;;;;;;2.27;63.02;104056.00;6065776;29;20248;-69
2023/02/08 04:19:53;;;;;;;11.13;7.50;;;;;;;2.37;63.01;104065.75;6066277;29;20584;-68
2023/02/08 04:23:14;;;;;;;15.20;8.83;;;;;;;2.40;64.03;104057.75;6061317;29;20233;-69
2023/02/08 04:26:35;;;;;;;17.70;9.73;;;;;;;2.47;63.84;104055.94;6060337;29;20241;-69
2023/02/08 04:29:56;;;;;;;15.13;9.60;;;;;;;2.50;64.03;104049.72;6050473;29;20253;-69
2023/02/08 04:33:18;;;;;;;17.50;10.20;;;;;;;2.31;62.89;104048.91;6058723;29;20623;-69
2023/02/08 04:36:40;;;;;;;11.90;9.87;;;;;;;1.89;64.32;104041.06;6046485;29;20226;-69
2023/02/08 04:40:00;;;;;;;11.67;10.03;;;;;;;1.70;65.66;104041.97;6056701;29;20237;-69
2023/02/08 04:43:21;;;;;;;18.20;11.03;;;;;;;1.88;64.98;104041.97;6052336;29;22496;-69
2023/02/08 04:46:42;;;;;;;15.73;9.80;;;;;;;1.63;65.43;104045.53;6068864;29;20814;-69
2023/02/08 04:50:05;;;;;;;13.47;9.93;;;;;;;2.06;64.33;104047.22;6058520;29;20240;-68
2023/02/08 04:53:26;;;;;;;10.13;7.00;;;;;;;1.84;64.49;104049.03;6054018;29;20240;-69
2023/02/08 04:56:48;;;;;;;18.23;9.70;;;;;;;1.50;65.35;104045.53;6055432;29;20229;-69
2023/02/08 05:00:10;;;;;;;14.53;8.73;;;;;;;0.94;68.11;104047.25;6059872;29;20229;-70
2023/02/08 05:03:31;;;;;;;15.60;9.73;;;;;;;1.24;67.49;104043.75;6052579;29;20755;-69
2023/02/08 05:06:53;;;;;;;14.07;9.03;;;;;;;1.27;67.45;104043.78;6062862;29;20245;-69
2023/02/08 05:10:13;;;;;;;18.80;11.03;;;;;;;1.32;66.86;104039.31;6059261;29;20249;-69
2023/02/08 05:13:34;;;;;;;19.67;10.40;;;;;;;1.41;66.98;104031.38;6054562;29;20322;-69
2023/02/08 05:16:55;;;;;;;12.20;9.37;;;;;;;1.02;67.44;104034.91;6034167;29;20229;-69
2023/02/08 05:20:16;;;;;;;11.90;8.43;;;;;;;1.33;67.33;104028.72;6054262;29;20226;-68
2023/02/08 05:23:39;;;;;;;18.87;10.73;;;;;;;1.10;67.54;104034.91;6043435;29;20232;-69
2023/02/08 05:27:00;;;;;;;13.60;8.77;;;;;;;1.06;68.00;104028.72;6038937;29;20233;-69
2023/02/08 05:30:21;;;;;;;13.67;10.37;;;;;;;1.23;67.81;104028.72;6070799;29;20233;-70
2023/02/08 05:37:26;;;;;;;25.23;10.80;;;;;;;0.45;68.57;104032.97;6128215;28;20692;-69
2023/02/08 05:40:48;;;;;;;14.73;9.50;;;;;;;0.51;68.86;104032.09;6124883;28;20231;-69
2023/02/08 05:44:09;;;;;;;18.37;11.10;;;;;;;0.73;68.85;104026.00;6130341;28;20234;-70
2023/02/08 05:47:30;;;;;;;19.20;13.47;;;;;;;0.46;69.15;104025.91;6123350;28;20612;-69
2023/02/08 05:50:50;;;;;;;17.83;12.77;;;;;;;0.64;68.79;104012.69;6133701;28;20232;-69
2023/02/08 05:54:11;;;;;;;17.70;10.13;;;;;;;1.13;67.39;104022.50;6111230;28;20239;-69
2023/02/08 05:57:33;;;;;;;13.80;10.90;;;;;;;0.44;68.63;104020.56;6129123;28;20781;-70
2023/02/08 06:00:55;;;;;;;19.00;11.50;;;;;;;-0.01;70.40;104023.94;6127342;28;20231;-69
2023/02/08 06:04:16;;;;;;;16.20;10.30;;;;;;;-0.10;70.54;104018.56;6124074;28;20232;-69
2023/02/08 06:07:37;;;;;;;13.43;11.63;;;;;;;0.64;68.77;104024.19;6103774;28;20809;-69
2023/02/08 06:10:58;;;;;;;14.27;10.97;;;;;;;0.23;69.49;104023.13;6120569;28;20560;-69
2023/02/08 06:14:20;;;;;;;12.00;9.30;;;;;;;-0.16;70.48;104023.81;6134297;28;20258;-69
2023/02/08 06:17:41;;;;;;;18.07;10.90;;;;;;;0.49;69.12;104029.44;6124638;28;20235;-69
2023/02/08 06:21:01;;;;;;;18.37;11.87;;;;;;;-0.31;71.04;104044.94;6137840;28;20243;-69
2023/02/08 06:24:24;;;;;;;23.67;12.83;;;;;;;-0.02;70.50;104038.03;6130352;28;20231;-69
2023/02/08 06:27:44;;;;;;;16.37;11.33;;;;;;;0.24;69.04;104053.22;6122389;28;20903;-69
2023/02/08 06:31:07;;;;;;;19.93;11.93;;;;;;;0.04;69.73;104054.88;6105216;28;20319;-69
2023/02/08 06:34:28;;;;;;;15.33;9.67;;;;;;;0.72;67.96;104058.72;6130254;28;20326;-69
2023/02/08 06:37:51;;;;;;;16.63;10.37;;;;;;;0.57;68.40;104054.25;6146288;28;20226;-70
2023/02/08 06:41:12;;;;;;;15.73;11.47;;;;;;;0.24;69.41;104055.84;6144938;28;20239;-68
2023/02/08 06:44:33;;;;;;;15.40;10.67;;;;;;;0.19;69.67;104049.66;6133629;28;20612;-69
2023/02/08 06:47:55;;;;;;;17.73;10.27;;;;;;;0.32;69.34;104044.41;6144958;28;20229;-70
2023/02/08 06:51:16;;;;;;;16.43;12.20;;;;;;;0.73;68.38;104047.22;6147244;28;20247;-69
2023/02/08 06:54:37;;;;;;;19.70;12.50;;;;;;;0.81;67.17;104045.47;6155186;28;20239;-69
2023/02/08 06:57:58;;;;;;;16.73;12.63;;;;;;;0.44;68.11;104047.09;6147900;28;20230;-68
2023/02/08 07:01:19;;;;;;;24.37;12.07;;;;;;;1.41;68.11;104048.19;6144693;28;20243;-72
2023/02/08 07:04:41;;;;;;;18.97;10.30;;;;;;;1.23;66.31;104049.97;6146015;28;20230;-71
2023/02/08 07:08:02;;;;;;;12.03;9.00;;;;;;;0.79;68.20;104041.94;6122372;28;20365;-70
2023/02/08 07:11:23;;;;;;;16.07;11.57;;;;;;;0.43;68.79;104037.38;6140343;28;20549;-70
2023/02/08 07:14:45;;;;;;;22.77;12.70;;;;;;;0.95;67.00;104027.78;6136220;28;20224;-71
2023/02/08 07:18:05;;;;;;;21.90;11.87;;;;;;;0.16;69.92;104031.97;6146374;28;20730;-72
2023/02/08 07:21:27;;;;;;;15.43;10.83;;;;;;;0.63;68.35;104033.03;6172330;28;20822;-74
2023/02/08 07:24:48;;;;;;;22.17;14.20;;;;;;;0.57;68.61;104034.78;6166702;28;20707;-73
2023/02/08 07:28:09;;;;;;;24.50;11.67;;;;;;;0.47;69.35;104033.88;6148725;28;20493;-70
2023/02/08 07:31:30;;;;;;;16.73;12.77;;;;;;;0.11;70.26;104036.34;6158497;28;20230;-69
2023/02/08 07:34:52;;;;;;;20.23;12.13;;;;;;;0.04;71.33;104034.56;6164310;28;20871;-70
2023/02/08 07:38:15;;;;;;;20.07;12.40;;;;;;;0.29;69.36;104027.59;6147883;28;20299;-69
2023/02/08 07:41:36;;;;;;;14.80;10.87;;;;;;;0.33;70.91;104029.38;6145463;28;20427;-68
2023/02/08 07:44:57;;;;;;;24.37;12.80;;;;;;;0.67;68.75;104036.56;6151382;28;20234;-70
2023/02/08 07:48:18;;;;;;;19.93;14.13;;;;;;;0.32;69.96;104031.16;6144977;28;20230;-69
2023/02/08 07:51:39;;;;;;;21.47;13.10;;;;;;;0.46;69.76;104032.06;6157869;28;20234;-69
2023/02/08 07:55:01;;;;;;;20.13;12.93;;;;;;;-0.05;70.95;104035.41;6145987;28;20222;-71
2023/02/08 07:58:22;;;;;;;18.33;14.30;;;;;;;0.17;71.09;104030.22;6147819;28;20768;-71
2023/02/08 08:01:43;;;;;;;21.37;14.47;;;;;;;0.19;71.01;104033.75;6141798;28;20230;-69
2023/02/08 08:05:04;;;;;;;19.90;13.10;;;;;;;0.06;70.65;104031.91;6137214;28;20246;-69
2023/02/08 08:08:25;;;;;;;18.47;13.47;;;;;;;-0.28;72.49;104029.06;6156458;28;20294;-69
2023/02/08 08:11:47;;;;;;;24.50;13.80;;;;;;;0.05;72.12;104033.66;6126744;28;20755;-68
2023/02/08 08:15:08;;;;;;;16.73;11.87;;;;;;;0.18;71.25;104024.91;6148074;28;20321;-71
2023/02/08 08:18:30;;;;;;;24.27;13.30;;;;;;;0.95;69.22;104021.59;6147883;28;20238;-71
2023/02/08 08:21:51;;;;;;;22.63;13.17;;;;;;;1.16;67.69;104026.94;6148935;28;20590;-71
2023/02/08 08:25:12;;;;;;;24.57;13.97;;;;;;;1.37;67.87;104019.88;6146947;28;20505;-71
2023/02/08 08:28:34;;;;;;;21.47;14.37;;;;;;;1.61;66.91;104017.16;6131509;28;20234;-71
2023/02/08 08:31:55;;;;;;;16.37;11.60;;;;;;;1.01;67.91;104006.56;6132486;28;20326;-72
2023/02/08 08:35:16;;;;;;;20.43;13.30;;;;;;;1.64;66.76;104005.66;6133297;28;20571;-71
2023/02/08 08:38:39;;;;;;;20.20;13.83;;;;;;;0.82;68.77;104003.00;6145548;28;20238;-70
2023/02/08 08:42:02;;;;;;;24.73;13.87;;;;;;;1.53;66.45;104008.31;6141535;28;20226;-70
2023/02/08 08:45:25;;;;;;;20.20;12.93;;;;;;;1.98;65.42;104011.78;6144609;28;20238;-70
2023/02/08 08:48:46;;;;;;;18.97;12.30;;;;;;;1.82;65.83;104015.34;6131747;28;20230;-71
2023/02/08 08:52:07;;;;;;;21.93;13.30;;;;;;;2.31;64.14;104017.88;6124590;28;20231;-71
2023/02/08 08:55:27;;;;;;;21.13;14.57;;;;;;;2.74;62.79;104005.22;6150796;28;20226;-70
2023/02/08 08:58:48;;;;;;;26.27;15.10;;;;;;;2.80;61.66;104005.16;6138677;28;20325;-70
2023/02/08 09:02:12;;;;;;;23.07;15.03;;;;;;;2.94;60.92;103999.75;6125275;28;20598;-71
2023/02/08 09:05:32;;;;;;;24.47;15.03;;;;;;;2.97;60.75;103999.72;6147867;28;20621;-71
2023/02/08 09:08:53;;;;;;;20.83;12.73;;;;;;;3.21;60.69;103995.09;6141992;28;20242;-70
2023/02/08 09:12:15;;;;;;;25.40;15.67;;;;;;;5.13;54.69;103991.84;6134307;28;20230;-70
2023/02/08 09:15:38;;;;;;;24.93;13.57;;;;;;;7.34;46.81;103985.41;6151044;28;20817;-70
2023/02/08 09:19:02;;;;;;;16.00;12.93;;;;;;;9.29;42.29;103989.44;6143029;28;20222;-73
2023/02/08 09:22:23;;;;;;;20.73;14.17;;;;;;;11.42;38.43;103975.81;6137558;28;20511;-68
2023/02/08 09:25:44;;;;;;;15.00;10.87;;;;;;;11.00;36.78;103981.19;6139813;28;20233;-71
2023/02/08 09:29:05;;;;;;;15.70;10.97;;;;;;;9.83;39.56;103983.94;6131121;28;20317;-71
2023/02/08 09:32:26;;;;;;;16.53;12.67;;;;;;;12.05;35.93;103972.16;6135751;28;20238;-73
2023/02/08 09:35:49;;;;;;;16.80;11.90;;;;;;;11.87;35.16;103973.84;6159755;28;20234;-71
2023/02/08 09:39:13;;;;;;;19.70;13.07;;;;;;;10.47;38.30;103979.78;6156803;28;20234;-72
2023/02/08 09:42:40;;;;;;;18.13;11.43;;;;;;;10.59;38.35;103976.59;6147020;28;20235;-71
2023/02/08 09:46:05;;;;;;;14.90;10.30;;;;;;;13.87;32.29;103962.13;6151477;28;20238;-74
2023/02/08 09:49:31;;;;;;;20.33;12.68;;;;;;;15.85;29.87;103956.91;6154351;28;20643;-71
2023/02/08 09:53:01;;;;;;;18.58;13.48;;;;;;;16.51;27.95;103961.84;6136836;28;20239;-71
2023/02/08 09:56:28;;;;;;;17.95;11.73;;;;;;;17.77;27.23;103960.50;6141043;28;20273;-70
2023/02/08 09:59:54;;;;;;;21.80;11.90;;;;;;;17.49;26.15;103967.00;6164681;28;20227;-70
2023/02/08 10:03:26;;;;;;;22.25;12.73;;;;;;;14.70;29.67;103967.50;6149472;28;20226;-71
2023/02/08 10:06:47;;;;;;;18.02;11.45;;;;;;;17.63;27.74;103962.47;6151339;28;20234;-70
2023/02/08 10:10:15;;;;;;;19.52;12.20;;;;;;;15.71;27.79;103973.22;6146428;28;21106;-69
2023/02/08 10:13:53;;;;;;;19.27;12.18;;;;;;;15.40;29.13;103965.13;6148944;28;20586;-72
2023/02/08 10:17:31;;;;;;;17.08;12.95;;;;;;;16.62;28.20;103964.75;6121764;28;20242;-69
2023/02/08 10:21:20;;;;;;;22.70;14.15;;;;;;;19.24;24.28;103955.97;6147302;28;20234;-69
2023/02/08 10:25:00;;;;;;;17.52;12.77;;;;;;;18.23;25.05;103969.03;6151357;28;20228;-71
2023/02/08 10:28:34;;;;;;;19.15;13.90;;;;;;;18.70;25.10;103960.13;6137916;28;20312;-71
2023/02/08 10:32:13;;;;;;;17.60;12.77;;;;;;;19.23;24.11;103970.66;6138897;28;20247;-71
2023/02/08 10:35:38;;;;;;;25.33;15.07;;;;;;;19.82;23.63;103966.91;6148666;28;20234;-71
2023/02/08 10:39:00;;;;;;;16.08;12.70;;;;;;;19.82;23.08;103966.03;6153783;28;20250;-72
2023/02/08 10:42:25;;;;;;;17.40;15.02;;;;;;;19.56;23.92;103975.41;6130132;28;20246;-71
2023/02/08 10:45:54;;;;;;;19.10;14.70;;;;;;;20.25;22.28;103964.41;6159595;28;20234;-71
2023/02/08 10:49:18;;;;;;;18.60;13.18;;;;;;;21.12;21.81;103967.19;6148996;28;20244;-72
2023/02/08 10:52:39;;;;;;;18.50;13.13;;;;;;;19.05;23.65;103972.91;6128256;28;20234;-71
2023/02/08 10:56:00;;;;;;;20.23;13.20;;;;;;;21.07;21.88;103968.56;6138298;28;20668;-70
2023/02/08 10:59:24;;;;;;;16.88;14.15;;;;;;;16.37;26.33;103968.16;6142710;28;20235;-68
2023/02/08 11:02:48;;;;;;;18.13;12.77;;;;;;;21.40;21.69;103950.09;6140186;28;20229;-70
2023/02/08 11:06:26;;;;;;;16.33;14.57;;;;;;;21.77;21.00;103955.13;6165116;28;20290;-69
2023/02/08 11:09:47;;;;;;;18.52;13.10;;;;;;;21.21;21.43;103946.31;6171249;28;20384;-71
2023/02/08 11:13:17;;;;;;;18.95;14.45;;;;;;;21.31;21.10;103947.28;6125165;28;20555;-70
2023/02/08 11:16:40;;;;;;;17.88;14.35;;;;;;;22.13;20.41;103940.94;6142616;28;20265;-69
2023/02/08 11:20:02;;;;;;;17.15;12.55;;;;;;;22.64;19.80;103930.75;6132155;28;20294;-69
2023/02/08 11:23:26;;;;;;;17.58;12.40;;;;;;;21.90;21.88;103928.38;6133974;28;20242;-66
2023/02/08 11:26:47;;;;;;;19.05;13.13;;;;;;;21.27;20.87;103932.06;6150437;28;20219;-65
2023/02/08 11:30:21;;;;;;;16.83;13.40;;;;;;;20.60;21.89;103931.34;6136056;28;20616;-65
2023/02/08 11:33:58;;;;;;;16.35;13.85;;;;;;;21.73;21.93;103910.59;6151927;28;20226;-66
2023/02/08 11:37:25;;;;;;;14.18;12.60;;;;;;;17.97;23.96;103923.59;6135539;28;20239;-65
2023/02/08 11:40:46;;;;;;;15.10;9.95;;;;;;;18.73;23.71;103916.19;6132663;28;20234;-65
2023/02/08 11:44:13;;;;;;;16.70;12.63;;;;;;;20.78;23.04;103910.63;6162655;28;20458;-66
2023/02/08 11:47:37;;;;;;;17.30;14.32;;;;;;;21.49;20.45;103913.59;6118708;28;20237;-69
2023/02/08 11:51:00;;;;;;;18.42;11.52;;;;;;;21.01;20.88;103904.06;6148521;28;20664;-69
2023/02/08 11:54:40;;;;;;;16.45;12.20;;;;;;;22.98;18.94;103907.38;6152286;28;20493;-69
2023/02/08 11:58:02;;;;;;;19.77;13.25;;;;;;;21.66;19.53;103900.28;6139093;28;20226;-71
2023/02/08 12:01:27;;;;;;;17.70;11.80;;;;;;;20.17;20.83;103912.03;6154717;28;20239;-69
2023/02/08 12:04:48;;;;;;;16.15;12.10;;;;;;;18.83;22.20;103906.28;6138867;28;20231;-71
2023/02/08 12:08:19;;;;;;;17.80;13.23;;;;;;;17.86;22.92;103910.72;6136712;28;20219;-68
2023/02/08 12:11:45;;;;;;;16.23;13.13;;;;;;;19.24;21.43;103893.03;6139664;28;20247;-69
2023/02/08 12:15:18;;;;;;;15.50;12.57;;;;;;;18.16;22.58;103892.13;6130672;28;20230;-68
2023/02/08 12:19:02;;;;;;;29.83;12.27;;;;;;;18.93;21.80;103886.34;6139889;28;20271;-72
2023/02/08 12:22:25;;;;;;;13.77;10.57;;;;;;;16.60;23.80;103893.16;6141841;28;20599;-71
2023/02/08 12:25:51;;;;;;;14.10;12.38;;;;;;;19.11;21.40;103873.97;6162802;28;20524;-69
2023/02/08 12:29:35;;;;;;;15.32;10.45;;;;;;;21.54;19.77;103868.41;6143538;28;20578;-71
2023/02/08 12:33:07;;;;;;;16.60;13.27;;;;;;;23.66;17.40;103855.84;6121634;28;20230;-71
2023/02/08 12:36:39;;;;;;;13.13;10.75;;;;;;;21.68;18.88;103857.06;6137777;28;20234;-69
2023/02/08 12:44:02;;;;;;;13.90;11.45;;;;;;;18.36;22.16;103842.38;6150803;28;20225;-68
2023/02/08 12:47:40;;;;;;;16.45;10.63;;;;;;;20.51;19.94;103834.28;6138409;28;20241;-68
2023/02/08 12:51:12;;;;;;;15.48;11.20;;;;;;;15.52;25.56;103836.63;6147610;28;20226;-71
2023/02/08 12:54:39;;;;;;;16.73;10.68;;;;;;;15.43;25.50;103820.00;6158034;28;20246;-70
2023/02/08 12:58:08;;;;;;;12.43;10.77;;;;;;;15.28;25.03;103818.19;6133007;28;20604;-72
2023/02/08 13:01:34;;;;;;;15.70;10.80;;;;;;;13.96;26.54;103831.44;6141335;28;20300;-70
2023/02/08 13:05:02;;;;;;;11.20;9.20;;;;;;;13.50;27.82;103821.34;6138797;28;20230;-68
2023/02/08 13:08:29;;;;;;;12.33;9.33;;;;;;;11.34;30.64;103813.22;6139448;28;20230;-69
2023/02/08 13:11:57;;;;;;;14.23;10.00;;;;;;;12.83;29.70;103818.56;6140165;28;20254;-69
2023/02/08 13:15:23;;;;;;;15.10;11.73;;;;;;;14.62;31.03;103805.03;6122984;28;20218;-71
2023/02/08 13:18:47;;;;;;;10.10;8.00;;;;;;;13.69;29.80;103791.41;6142665;28;20517;-73
2023/02/08 13:22:13;;;;;;;13.50;7.67;;;;;;;15.08;33.31;103787.69;6133307;28;20242;-73
2023/02/08 13:25:36;;;;;;;11.33;8.23;;;;;;;12.42;29.78;103788.22;6141050;28;20257;-73
2023/02/08 13:28:58;;;;;;;13.07;9.07;;;;;;;13.11;29.87;103785.56;6127923;28;20521;-72
2023/02/08 13:32:28;;;;;;;12.70;8.60;;;;;;;13.60;33.44;103788.25;6140015;28;20246;-72
2023/02/08 13:35:50;;;;;;;9.53;7.43;;;;;;;12.64;28.80;103782.59;6145764;28;20515;-71
2023/02/08 13:39:31;;;;;;;14.30;9.70;;;;;;;13.17;28.38;103775.28;6139202;28;20229;-70
2023/02/08 13:42:59;;;;;;;10.93;7.37;;;;;;;13.32;29.37;103779.00;6121962;28;20239;-70
2023/02/08 13:46:21;;;;;;;14.47;9.30;;;;;;;11.22;31.28;103768.72;6132479;28;20231;-69
2023/02/08 13:49:52;;;;;;;10.07;8.13;;;;;;;12.34;29.93;103763.38;6131738;28;20235;-71
2023/02/08 13:53:13;;;;;;;9.37;6.50;;;;;;;11.58;30.39;103755.34;6136506;28;20233;-72
2023/02/08 13:56:42;;;;;;;10.97;7.17;;;;;;;12.91;29.84;103751.41;6144004;28;20238;-70
2023/02/08 14:00:24;;;;;;;8.07;7.27;;;;;;;13.05;28.79;103746.16;6153688;28;20234;-71
2023/02/08 14:04:38;;;;;;;8.00;6.40;;;;;;;12.19;29.74;103744.31;6150022;28;20451;-71
2023/02/08 14:08:01;;;;;;;10.77;7.53;;;;;;;13.21;30.42;103743.47;6135084;28;20234;-72
2023/02/08 14:11:35;;;;;;;9.97;7.50;;;;;;;11.98;31.38;103741.72;6153749;28;20620;-72
2023/02/08 14:18:37;;;;;;;9.67;7.63;;;;;;;11.62;32.42;103745.31;6249917;27;21522;-70
2023/02/08 14:22:03;;;;;;;10.07;6.40;;;;;;;12.31;31.79;103733.75;6221526;28;20319;-71
2023/02/08 14:25:27;;;;;;;11.67;9.40;;;;;;;12.39;31.76;103733.38;6206850;28;20229;-72
2023/02/08 14:28:55;;;;;;;10.13;5.10;;;;;;;12.50;31.43;103725.56;6257654;28;20310;-70
2023/02/08 14:32:25;;;;;;;11.90;8.60;;;;;;;12.33;30.77;103712.06;6252576;28;20243;-69
2023/02/08 14:35:54;;;;;;;14.90;8.33;;;;;;;13.26;30.21;103706.19;6273047;28;20338;-70
2023/02/08 14:39:25;;;;;;;9.67;6.77;;;;;;;14.00;29.15;103696.50;6259546;28;20235;-69
2023/02/08 14:42:57;;;;;;;9.20;7.70;;;;;;;13.41;29.73;103705.34;6255763;28;20239;-70
2023/02/08 14:46:43;;;;;;;9.07;6.97;;;;;;;14.28;29.10;103694.84;6254478;28;20231;-70
2023/02/08 14:50:13;;;;;;;10.63;7.67;;;;;;;11.54;32.62;103694.31;6264447;28;20232;-70
2023/02/08 14:53:46;;;;;;;9.87;7.97;;;;;;;10.01;35.69;103688.66;6242881;28;20235;-70
2023/02/08 14:57:20;;;;;;;9.10;8.00;;;;;;;10.05;36.25;103699.25;6247211;28;20326;-71
2023/02/08 15:00:44;;;;;;;12.40;8.47;;;;;;;9.37;38.35;103687.63;6256290;28;20652;-69
2023/02/08 15:04:05;;;;;;;8.57;7.73;;;;;;;9.62;37.07;103686.63;6267362;28;20972;-71
2023/02/08 15:07:34;;;;;;;9.97;7.30;;;;;;;8.81;38.08;103682.59;6253813;28;20230;-71
2023/02/08 15:10:57;;;;;;;10.00;8.10;;;;;;;8.95;38.50;103692.81;6261525;28;20223;-71
2023/02/08 15:14:20;;;;;;;13.80;8.37;;;;;;;8.85;38.81;103686.03;6267027;28;20227;-69
2023/02/08 15:17:46;;;;;;;10.93;7.50;;;;;;;8.37;40.20;103687.78;6244097;28;20538;-71
2023/02/08 15:21:15;;;;;;;16.20;9.23;;;;;;;8.19;40.87;103685.69;6267363;28;20231;-74
2023/02/08 15:24:36;;;;;;;10.43;7.30;;;;;;;8.45;39.99;103680.34;6258746;28;20218;-73
2023/02/08 15:28:01;;;;;;;11.00;7.10;;;;;;;8.57;40.77;103667.31;6238737;28;20529;-71
2023/02/08 15:31:31;;;;;;;11.03;9.33;;;;;;;8.77;40.35;103669.31;6229212;28;20225;-73
2023/02/08 15:34:55;;;;;;;9.37;8.33;;;;;;;8.49;39.74;103666.72;6234709;28;20645;-73
2023/02/08 15:38:19;;;;;;;11.73;7.73;;;;;;;7.98;41.59;103669.38;6223045;28;20696;-73
2023/02/08 15:41:40;;;;;;;12.13;9.00;;;;;;;8.02;42.01;103664.75;6239114;28;20534;-73
2023/02/08 15:45:03;;;;;;;14.27;8.53;;;;;;;8.46;41.48;103663.28;6258189;28;20235;-73
2023/02/08 15:48:24;;;;;;;8.73;7.77;;;;;;;7.97;42.10;103662.22;6233548;28;20255;-73
2023/02/08 15:51:47;;;;;;;11.67;8.80;;;;;;;7.71;43.41;103664.00;6243802;28;20233;-73
2023/02/08 15:55:12;;;;;;;10.67;7.73;;;;;;;7.72;43.47;103658.59;6241157;28;20236;-72
2023/02/08 15:58:37;;;;;;;13.27;7.93;;;;;;;8.24;43.88;103651.50;6240954;28;20223;-73
2023/02/08 16:02:15;;;;;;;10.03;6.97;;;;;;;7.62;44.31;103651.75;6233571;28;20228;-73